• Join FlightAware (Why Join?)
  • Login
  • US Flag 
04:45AM EDT


 

Airport Tracker/Info


-or-


 

Live Flight TrackerFlight Track Log ✈ AFR445 ✈ 30-Jun-2012 ✈ SBGL / GIG - LFPG / CDG

Flight Track Log - Related Links

Times and Time Zones

All times are in EDT time to prevent confusion due to time zone crossing. See the AFR445 flight status page for this flight to view local times or setup timezone preferences in your user account.

Time Position Orientation Groundspeed Altitude Reporting Facility
EDT Latitude Longitude Course Direction KTS MPH feet Rate Location/Type
06:15PM -22.3703 -42.9883 43° Northeast  Level Estimated
06:16PM -22.2614 -42.9253 44° Northeast  Level Estimated
06:17PM -22.1526 -42.8623 46° Northeast  Level Estimated
06:18PM -22.0437 -42.7995 47° Northeast  Level Estimated
06:19PM -21.9348 -42.7367 49° Northeast  Level Estimated
06:20PM -21.8259 -42.6741 52° Northeast  Level Estimated
06:21PM -21.7170 -42.6115 55° Northeast  Level Estimated
06:22PM -21.6080 -42.5490 59° Northeast  Level Estimated
06:23PM -21.4991 -42.4866 64° Northeast  Level Estimated
06:24PM -21.3900 -42.4244 71° East  Level Estimated
06:25PM -21.2810 -42.3622 81° East  Level Estimated
06:26PM -21.1720 -42.3001 93° East  Level Estimated
06:27PM -21.0629 -42.2381 109° East  Level Estimated
06:28PM -20.9538 -42.1761 126° Southeast  Level Estimated
06:29PM -20.8447 -42.1143 142° Southeast  Level Estimated
06:30PM -20.7355 -42.0526 155° Southeast  Level Estimated
06:31PM -20.6264 -41.9909 165° South  Level Estimated
06:32PM -20.5172 -41.9294 172° South  Level Estimated
06:33PM -20.4080 -41.8679 177° South  Level Estimated
06:34PM -20.2987 -41.8065 181° South  Level Estimated
06:35PM -20.1895 -41.7452 184° South  Level Estimated
06:36PM -20.0802 -41.6840 187° South  Level Estimated
06:37PM -19.9709 -41.6229 189° South  Level Estimated
06:38PM -19.8616 -41.5618 190° South  Level Estimated
06:39PM -19.7523 -41.5009 192° South  Level Estimated
06:40PM -19.6429 -41.4400 193° South  Level Estimated
06:41PM -19.5336 -41.3792 194° South  Level Estimated
06:42PM -19.4242 -41.3185 195° South  Level Estimated
06:43PM -19.3148 -41.2579 196° South  Level Estimated
06:44PM -19.2053 -41.1973 196° South  Level Estimated
06:45PM -19.0959 -41.1368 197° South  Level Estimated
06:46PM -21.1964 -41.8214 29° Northeast 476 548 31,000  Level FlightAware
06:48PM -20.9944 -41.7017 29° Northeast 495 570 31,000  Level FlightAware
06:48PM -20.8824 -41.6355 29° Northeast 494 568 31,000  Level FlightAware
06:49PM -20.7826 -41.5766 29° Northeast 494 568 31,000  Level FlightAware
06:50PM -20.7056 -41.5312 29° Northeast 494 568 31,000  Level FlightAware
06:50PM -20.6248 -41.4837 29° Northeast 496 571 31,000  Level FlightAware
06:51PM -20.5594 -41.4453 29° Northeast 494 568 31,000  Level FlightAware
06:52PM -20.4734 -41.3948 29° Northeast 493 567 31,000  Level FlightAware
06:52PM -20.4075 -41.3557 29° Northeast 494 568 31,000  Level FlightAware
06:53PM -20.3438 -41.3181 29° Northeast 496 571 31,000  Level FlightAware
06:53PM -20.2577 -41.2671 29° Northeast 496 571 31,000  Level FlightAware
06:54PM -20.2253 -41.2481 29° Northeast 498 573 31,000  Level FlightAware
06:55PM -20.1800 -41.2214 29° Northeast 498 573 31,000  Level FlightAware
06:55PM -20.0390 -41.1384 29° Northeast 494 568 31,000  Level FlightAware
06:56PM -19.9720 -41.0990 29° Northeast 494 568 31,000  Level FlightAware
06:56PM -19.9080 -41.0614 29° Northeast 494 568 31,000  Level FlightAware
06:57PM -19.7770 -40.9848 29° Northeast 492 566 31,000  Level FlightAware
06:58PM -19.6964 -40.9379 29° Northeast 490 564 31,000  Level FlightAware
06:59PM -19.6149 -40.8904 29° Northeast 488 562 31,000  Level FlightAware
06:59PM -19.5538 -40.8550 29° Northeast 487 560 31,000  Level FlightAware
07:03PM -19.1188 -40.6040 29° Northeast 481 554 31,000  Level FlightAware
07:04PM -19.0429 -40.5603 29° Northeast 481 554 31,000  Level FlightAware
07:04PM -18.9573 -40.5111 28° Northeast 481 554 31,000  Level FlightAware
07:05PM -18.8926 -40.4740 28° Northeast 480 552 31,000  Level FlightAware
07:06PM -18.8036 -40.4230 28° Northeast 480 552 31,000  Level FlightAware
07:06PM -18.7479 -40.3911 28° Northeast 479 551 31,000  Level FlightAware
07:07PM -18.6240 -40.3203 28° Northeast 480 552 31,000  Level FlightAware
07:08PM -18.5623 -40.2850 28° Northeast 482 555 31,000  Level FlightAware
07:08PM -18.4768 -40.2363 28° Northeast 483 556 31,000  Level FlightAware
07:09PM -18.3775 -40.1797 28° Northeast 482 555 31,000  Level FlightAware
07:12PM -18.0590 -39.9986 28° Northeast 485 558 31,000  Level FlightAware
07:14PM -17.8564 -39.8831 29° Northeast 481 554 31,000  Level FlightAware
07:15PM -17.6990 -39.7933 28° Northeast 481 554 31,000  Level FlightAware
07:16PM -17.6261 -39.7519 28° Northeast 482 555 31,000  Level FlightAware
07:24PM -16.7495 -39.2857 28° Northeast  Level Estimated
07:25PM -16.6386 -39.2271 28° Northeast  Level Estimated
07:26PM -16.5278 -39.1686 28° Northeast  Level Estimated
07:27PM -16.4170 -39.1102 28° Northeast  Level Estimated
07:28PM -16.3061 -39.0518 28° Northeast  Level Estimated
07:29PM -16.1952 -38.9935 28° Northeast  Level Estimated
07:30PM -16.0844 -38.9352 28° Northeast  Level Estimated
07:31PM -15.9734 -38.8771 28° Northeast  Level Estimated
07:32PM -15.8625 -38.8189 28° Northeast  Level Estimated
07:33PM -15.7516 -38.7609 28° Northeast  Level Estimated
07:34PM -15.6406 -38.7029 28° Northeast  Level Estimated
07:35PM -15.5297 -38.6450 28° Northeast  Level Estimated
07:36PM -15.4187 -38.5871 28° Northeast  Level Estimated
07:37PM -15.3077 -38.5293 28° Northeast  Level Estimated
07:38PM -15.1967 -38.4716 28° Northeast  Level Estimated
07:39PM -15.0856 -38.4139 28° Northeast  Level Estimated
07:40PM -14.9746 -38.3563 28° Northeast  Level Estimated
07:41PM -14.8635 -38.2987 28° Northeast  Level Estimated
07:42PM -14.7525 -38.2412 28° Northeast  Level Estimated
07:43PM -14.6414 -38.1838 28° Northeast  Level Estimated
07:44PM -14.5303 -38.1264 28° Northeast  Level Estimated
07:45PM -14.4192 -38.0691 28° Northeast  Level Estimated
07:46PM -14.3080 -38.0118 28° Northeast  Level Estimated
07:47PM -14.1969 -37.9546 28° Northeast  Level Estimated
07:48PM -14.0857 -37.8974 29° Northeast  Level Estimated
07:49PM -13.9746 -37.8403 29° Northeast  Level Estimated
07:50PM -13.8634 -37.7833 29° Northeast  Level Estimated
07:51PM -13.7522 -37.7263 29° Northeast  Level Estimated
07:52PM -13.6410 -37.6694 29° Northeast  Level Estimated
07:53PM -13.5298 -37.6125 29° Northeast  Level Estimated
07:54PM -13.4185 -37.5556 29° Northeast  Level Estimated
07:55PM -13.3073 -37.4989 29° Northeast  Level Estimated
07:56PM -13.1960 -37.4422 29° Northeast  Level Estimated
07:57PM -13.0848 -37.3855 29° Northeast  Level Estimated
07:58PM -12.9735 -37.3289 29° Northeast  Level Estimated
07:59PM -12.8622 -37.2723 29° Northeast  Level Estimated
08:00PM -12.7509 -37.2158 29° Northeast  Level Estimated
08:01PM -12.6396 -37.1593 29° Northeast  Level Estimated
08:02PM -12.5282 -37.1029 29° Northeast  Level Estimated
08:03PM -12.4169 -37.0465 29° Northeast  Level Estimated
08:04PM -12.3055 -36.9902 29° Northeast  Level Estimated
08:05PM -12.1942 -36.9339 30° Northeast  Level Estimated
08:06PM -12.0828 -36.8777 30° Northeast  Level Estimated
08:07PM -11.9714 -36.8215 30° Northeast  Level Estimated
08:08PM -11.8600 -36.7654 30° Northeast  Level Estimated
08:09PM -11.7486 -36.7093 30° Northeast  Level Estimated
08:10PM -11.6372 -36.6532 30° Northeast  Level Estimated
08:11PM -11.5257 -36.5972 30° Northeast  Level Estimated
08:12PM -11.4143 -36.5412 31° Northeast  Level Estimated
08:13PM -11.3035 -36.4857 31° Northeast  Level Estimated
08:14PM -11.1927 -36.4301 31° Northeast  Level Estimated
08:15PM -11.0819 -36.3746 31° Northeast  Level Estimated
08:16PM -10.9711 -36.3192 32° Northeast  Level Estimated
08:17PM -10.8603 -36.2638 32° Northeast  Level Estimated
08:18PM -10.7494 -36.2084 32° Northeast  Level Estimated
08:19PM -10.6386 -36.1531 33° Northeast  Level Estimated
08:20PM -10.5277 -36.0978 34° Northeast  Level Estimated
08:21PM -10.4168 -36.0425 34° Northeast  Level Estimated
08:22PM -10.3060 -35.9873 35° Northeast  Level Estimated
08:23PM -10.1951 -35.9322 36° Northeast  Level Estimated
08:24PM -10.0842 -35.8770 37° Northeast  Level Estimated
08:25PM -9.9733 -35.8219 39° Northeast  Level Estimated
08:26PM -9.8624 -35.7669 41° Northeast  Level Estimated
08:27PM -9.7514 -35.7119 44° Northeast  Level Estimated
08:28PM -9.2882 -35.2666 28° Northeast 470 541 35,000  Level FlightAware
08:28PM -9.2309 -35.2357 28° Northeast 468 539 35,000  Level FlightAware
08:31PM -8.9230 -35.0698 28° Northeast 468 539 35,000  Level FlightAware
08:31PM -8.8627 -35.0374 28° Northeast 468 539 35,000  Level FlightAware
08:32PM -8.7803 -34.9931 28° Northeast 469 540 35,000  Level FlightAware
08:33PM -8.7082 -34.9543 28° Northeast 469 540 35,000  Level FlightAware
08:33PM -8.6307 -34.9127 28° Northeast 468 539 35,000  Level FlightAware
08:34PM -8.5636 -34.8767 28° Northeast 467 537 35,000  Level FlightAware
08:34PM -8.4948 -34.8397 28° Northeast 467 537 35,000  Level FlightAware
08:35PM -8.4230 -34.8012 28° Northeast 468 539 35,000  Level FlightAware
08:36PM -8.3534 -34.7639 28° Northeast 468 539 35,000  Level FlightAware
08:36PM -8.2764 -34.7226 28° Northeast 467 537 35,000  Level FlightAware
08:38PM -8.1035 -34.6300 28° Northeast 467 537 35,000  Level FlightAware
08:39PM -8.0155 -34.5828 28° Northeast 466 536 35,000  Level FlightAware
08:39PM -7.9447 -34.5450 28° Northeast 465 535 35,000  Level FlightAware
08:40PM -7.8570 -34.4981 27° Northeast 463 533 35,000  Level FlightAware
08:41PM -7.7869 -34.4623 20° North 462 532 35,000  Level FlightAware
08:41PM -7.7102 -34.4344 14° North 460 529 35,000  Level FlightAware
08:42PM -7.6317 -34.4146 14° North 461 531 35,000  Level FlightAware
08:42PM -7.5617 -34.3972 14° North 460 529 35,000  Level FlightAware
08:43PM -7.4853 -34.3785 14° North 461 531 35,000  Level FlightAware
08:44PM -7.4058 -34.3589 14° North 461 531 35,000  Level FlightAware
08:44PM -7.3324 -34.3410 14° North 461 531 35,000  Level FlightAware
08:45PM -7.2526 -34.3214 14° North 462 532 35,000  Level FlightAware
08:45PM -7.1796 -34.3035 14° North 462 532 35,000  Level FlightAware
08:46PM -7.1026 -34.2847 14° North 463 533 35,000  Level FlightAware
08:47PM -7.0234 -34.2652 14° North 464 534 35,000  Level FlightAware
08:47PM -6.9435 -34.2457 14° North 463 533 35,000  Level FlightAware
08:49PM -6.7472 -34.1976 14° North 464 534 35,000  Level FlightAware
08:50PM -6.6658 -34.1777 14° North 465 535 35,000  Level FlightAware
08:50PM -6.5983 -34.1611 14° North 464 534 35,000  Level FlightAware
08:51PM -6.4563 -34.1264 14° North 466 536 35,000  Level FlightAware
08:52PM -6.3798 -34.1077 14° North 465 535 35,000  Level FlightAware
08:52PM -6.3132 -34.0915 14° North 465 535 35,000  Level FlightAware
08:53PM -6.2331 -34.0719 14° North 463 533 35,000  Level FlightAware
08:54PM -6.1195 -34.0442 27° Northeast 463 533 35,000  Level FlightAware
09:02PM -5.2954 -33.6431 27° Northeast  Level Estimated
09:03PM -5.1842 -33.5891 27° Northeast  Level Estimated
09:04PM -5.0731 -33.5351 27° Northeast  Level Estimated
09:05PM -4.9619 -33.4812 27° Northeast  Level Estimated
09:06PM -4.8508 -33.4272 27° Northeast  Level Estimated
09:07PM -4.7396 -33.3733 27° Northeast  Level Estimated
09:08PM -4.6285 -33.3194 27° Northeast  Level Estimated
09:09PM -4.5173 -33.2655 27° Northeast  Level Estimated
09:10PM -4.4061 -33.2117 27° Northeast  Level Estimated
09:11PM -4.2950 -33.1578 27° Northeast  Level Estimated
09:12PM -4.1838 -33.1040 27° Northeast  Level Estimated
09:13PM -4.0726 -33.0501 27° Northeast  Level Estimated
09:14PM -3.9614 -32.9963 27° Northeast  Level Estimated
09:15PM -3.8502 -32.9425 27° Northeast  Level Estimated
09:16PM -3.7390 -32.8888 27° Northeast  Level Estimated
09:17PM -3.6279 -32.8350 27° Northeast  Level Estimated
09:18PM -3.5166 -32.7812 27° Northeast  Level Estimated
09:19PM -3.4055 -32.7275 27° Northeast  Level Estimated
09:20PM -3.2943 -32.6738 27° Northeast  Level Estimated
09:21PM -3.1830 -32.6201 27° Northeast  Level Estimated
09:22PM -3.0718 -32.5664 27° Northeast  Level Estimated
09:23PM -2.9606 -32.5127 27° Northeast  Level Estimated
09:24PM -2.8494 -32.4590 27° Northeast  Level Estimated
09:25PM -2.7382 -32.4053 27° Northeast  Level Estimated
09:26PM -2.6270 -32.3517 27° Northeast  Level Estimated
09:27PM -2.5157 -32.2980 27° Northeast  Level Estimated
09:28PM -2.4045 -32.2444 27° Northeast  Level Estimated
09:29PM -2.2933 -32.1907 27° Northeast  Level Estimated
09:30PM -2.1821 -32.1371 27° Northeast  Level Estimated
09:31PM -2.0708 -32.0835 27° Northeast  Level Estimated
09:32PM -1.9596 -32.0299 27° Northeast  Level Estimated
09:33PM -1.8484 -31.9763 27° Northeast  Level Estimated
09:34PM -1.7371 -31.9227 27° Northeast  Level Estimated
09:35PM -1.6259 -31.8691 27° Northeast  Level Estimated
09:36PM -1.5146 -31.8155 27° Northeast  Level Estimated
09:37PM -1.4034 -31.7619 27° Northeast  Level Estimated
09:38PM -1.2922 -31.7084 27° Northeast  Level Estimated
09:39PM -1.1809 -31.6548 27° Northeast  Level Estimated
09:40PM -1.0697 -31.6012 27° Northeast  Level Estimated
09:41PM -0.9585 -31.5477 27° Northeast  Level Estimated
09:42PM -0.8472 -31.4941 27° Northeast  Level Estimated
09:43PM -0.7359 -31.4406 27° Northeast  Level Estimated
09:44PM -0.6247 -31.3870 27° Northeast  Level Estimated
09:45PM -0.5135 -31.3335 27° Northeast  Level Estimated
09:46PM -0.4022 -31.2799 27° Northeast  Level Estimated
09:47PM -0.2910 -31.2264 27° Northeast  Level Estimated
09:48PM -0.1797 -31.1728 27° Northeast  Level Estimated
09:49PM -0.0684 -31.1193 27° Northeast  Level Estimated
09:50PM 0.0428 -31.0657 27° Northeast  Level Estimated
09:51PM 0.1540 -31.0122 27° Northeast  Level Estimated
09:52PM 0.2653 -30.9587 27° Northeast  Level Estimated
09:53PM 0.3765 -30.9051 27° Northeast  Level Estimated
09:54PM 0.4878 -30.8516 27° Northeast  Level Estimated
09:55PM 0.5990 -30.7980 27° Northeast  Level Estimated
09:56PM 0.7103 -30.7445 27° Northeast  Level Estimated
09:57PM 0.8216 -30.6909 27° Northeast  Level Estimated
09:58PM 0.9328 -30.6374 27° Northeast  Level Estimated
09:59PM 1.0440 -30.5838 27° Northeast  Level Estimated
10:00PM 1.1553 -30.5302 27° Northeast  Level Estimated
10:01PM 1.2665 -30.4767 27° Northeast  Level Estimated
10:02PM 1.3778 -30.4231 27° Northeast  Level Estimated
10:03PM 1.4890 -30.3695 27° Northeast  Level Estimated
10:04PM 1.6002 -30.3159 27° Northeast  Level Estimated
10:05PM 1.7115 -30.2623 27° Northeast  Level Estimated
10:06PM 1.8227 -30.2087 27° Northeast  Level Estimated
10:07PM 1.9339 -30.1551 27° Northeast  Level Estimated
10:08PM 2.0452 -30.1015 27° Northeast  Level Estimated
10:09PM 2.1564 -30.0479 27° Northeast  Level Estimated
10:10PM 2.2676 -29.9943 27° Northeast  Level Estimated
10:11PM 2.3789 -29.9407 27° Northeast  Level Estimated
10:12PM 2.4901 -29.8870 27° Northeast  Level Estimated
10:13PM 2.5995 -29.8342 27° Northeast  Level Estimated
10:14PM 2.7089 -29.7815 27° Northeast  Level Estimated
10:15PM 2.8184 -29.7287 27° Northeast  Level Estimated
10:16PM 2.9278 -29.6758 27° Northeast  Level Estimated
10:17PM 3.0372 -29.6230 27° Northeast  Level Estimated
10:18PM 3.1466 -29.5702 27° Northeast  Level Estimated
10:19PM 3.2560 -29.5174 27° Northeast  Level Estimated
10:20PM 3.3654 -29.4645 27° Northeast  Level Estimated
10:21PM 3.4748 -29.4116 27° Northeast  Level Estimated
10:22PM 3.5842 -29.3588 27° Northeast  Level Estimated
10:23PM 3.6936 -29.3059 27° Northeast  Level Estimated
10:24PM 3.8030 -29.2530 27° Northeast  Level Estimated
10:25PM 3.9124 -29.2001 27° Northeast  Level Estimated
10:26PM 4.0218 -29.1471 27° Northeast  Level Estimated
10:27PM 4.1312 -29.0942 27° Northeast  Level Estimated
10:28PM 4.2406 -29.0412 27° Northeast  Level Estimated
10:29PM 4.3499 -28.9882 27° Northeast  Level Estimated
10:30PM 4.4593 -28.9352 27° Northeast  Level Estimated
10:31PM 4.5687 -28.8822 27° Northeast  Level Estimated
10:32PM 4.6780 -28.8292 27° Northeast  Level Estimated
10:33PM 4.7874 -28.7762 27° Northeast  Level Estimated
10:34PM 4.8968 -28.7231 27° Northeast  Level Estimated
10:35PM 5.0061 -28.6700 27° Northeast  Level Estimated
10:36PM 5.1155 -28.6170 27° Northeast  Level Estimated
10:37PM 5.2248 -28.5639 27° Northeast  Level Estimated
10:38PM 5.3341 -28.5107 27° Northeast  Level Estimated
10:39PM 5.4435 -28.4576 27° Northeast  Level Estimated
10:40PM 5.5528 -28.4044 27° Northeast  Level Estimated
10:41PM 5.6621 -28.3512 27° Northeast  Level Estimated
10:42PM 5.7715 -28.2980 27° Northeast  Level Estimated
10:43PM 5.8808 -28.2448 27° Northeast  Level Estimated
10:44PM 5.9901 -28.1915 27° Northeast  Level Estimated
10:45PM 6.0994 -28.1383 27° Northeast  Level Estimated
10:46PM 6.2087 -28.0850 27° Northeast  Level Estimated
10:47PM 6.3180 -28.0317 27° Northeast  Level Estimated
10:48PM 6.4273 -27.9783 27° Northeast  Level Estimated
10:49PM 6.5366 -27.9250 27° Northeast  Level Estimated
10:50PM 6.6459 -27.8716 27° Northeast  Level Estimated
10:51PM 6.7551 -27.8182 27° Northeast  Level Estimated
10:52PM 6.8644 -27.7647 27° Northeast  Level Estimated
10:53PM 6.9736 -27.7113 27° Northeast  Level Estimated
10:54PM 7.0829 -27.6578 27° Northeast  Level Estimated
10:55PM 7.1922 -27.6043 27° Northeast  Level Estimated
10:56PM 7.3014 -27.5508 27° Northeast  Level Estimated
10:57PM 7.4106 -27.4972 27° Northeast  Level Estimated
10:58PM 7.5199 -27.4437 27° Northeast  Level Estimated
10:59PM 7.6291 -27.3901 27° Northeast  Level Estimated
11:00PM 7.7383 -27.3364 27° Northeast  Level Estimated
11:01PM 7.8475 -27.2827 27° Northeast  Level Estimated
11:02PM 7.9567 -27.2291 27° Northeast  Level Estimated
11:03PM 8.0659 -27.1753 27° Northeast  Level Estimated
11:04PM 8.1751 -27.1216 27° Northeast  Level Estimated
11:05PM 8.2843 -27.0678 27° Northeast  Level Estimated
11:06PM 8.3935 -27.0140 27° Northeast  Level Estimated
11:07PM 8.5026 -26.9602 27° Northeast  Level Estimated
11:08PM 8.6118 -26.9063 27° Northeast  Level Estimated
11:09PM 8.7210 -26.8524 27° Northeast  Level Estimated
11:10PM 8.8301 -26.7985 27° Northeast  Level Estimated
11:11PM 8.9392 -26.7445 27° Northeast  Level Estimated
11:12PM 9.0484 -26.6905 27° Northeast  Level Estimated
11:13PM 9.1575 -26.6365 28° Northeast  Level Estimated
11:14PM 9.2666 -26.5824 28° Northeast  Level Estimated
11:15PM 9.3757 -26.5283 28° Northeast  Level Estimated
11:16PM 9.4848 -26.4742 28° Northeast  Level Estimated
11:17PM 9.5939 -26.4200 28° Northeast  Level Estimated
11:18PM 9.7030 -26.3658 28° Northeast  Level Estimated
11:19PM 9.8120 -26.3116 28° Northeast  Level Estimated
11:20PM 9.9211 -26.2573 28° Northeast  Level Estimated
11:21PM 10.0302 -26.2030 28° Northeast  Level Estimated
11:22PM 10.1392 -26.1487 28° Northeast  Level Estimated
11:23PM 10.2483 -26.0943 28° Northeast  Level Estimated
11:24PM 10.3573 -26.0399 28° Northeast  Level Estimated
11:25PM 10.4663 -25.9854 28° Northeast  Level Estimated
11:26PM 10.5753 -25.9309 28° Northeast  Level Estimated
11:27PM 10.6843 -25.8764 28° Northeast  Level Estimated
11:28PM 10.7933 -25.8218 28° Northeast  Level Estimated
11:29PM 10.9023 -25.7672 28° Northeast  Level Estimated
11:30PM 11.0113 -25.7125 28° Northeast  Level Estimated
11:31PM 11.1202 -25.6579 28° Northeast  Level Estimated
11:32PM 11.2292 -25.6031 28° Northeast  Level Estimated
11:33PM 11.3381 -25.5483 28° Northeast  Level Estimated
11:34PM 11.4470 -25.4935 28° Northeast  Level Estimated
11:35PM 11.5560 -25.4387 28° Northeast  Level Estimated
11:36PM 11.6649 -25.3838 28° Northeast  Level Estimated
11:37PM 11.7738 -25.3288 28° Northeast  Level Estimated
11:38PM 11.8827 -25.2738 28° Northeast  Level Estimated
11:39PM 11.9915 -25.2188 28° Northeast  Level Estimated
11:40PM 12.1004 -25.1637 28° Northeast  Level Estimated
11:41PM 12.2093 -25.1086 28° Northeast  Level Estimated
11:42PM 12.3181 -25.0534 28° Northeast  Level Estimated
11:43PM 12.4270 -24.9982 28° Northeast  Level Estimated
11:44PM 12.5358 -24.9430 28° Northeast  Level Estimated
11:45PM 12.6446 -24.8877 28° Northeast  Level Estimated
11:46PM 12.7534 -24.8323 28° Northeast  Level Estimated
11:47PM 12.8622 -24.7769 28° Northeast  Level Estimated
11:48PM 12.9710 -24.7215 28° Northeast  Level Estimated
11:49PM 13.0797 -24.6660 28° Northeast  Level Estimated
11:50PM 13.1885 -24.6104 28° Northeast  Level Estimated
11:51PM 13.2972 -24.5548 28° Northeast  Level Estimated
11:52PM 13.4060 -24.4992 28° Northeast  Level Estimated
11:53PM 13.5147 -24.4435 28° Northeast  Level Estimated
11:54PM 13.6234 -24.3877 28° Northeast  Level Estimated
11:55PM 13.7321 -24.3319 28° Northeast  Level Estimated
11:56PM 13.8408 -24.2761 28° Northeast  Level Estimated
11:57PM 13.9494 -24.2202 29° Northeast  Level Estimated
11:58PM 14.0581 -24.1642 29° Northeast  Level Estimated
11:59PM 14.1667 -24.1082 29° Northeast  Level Estimated
12:00AM 14.2754 -24.0522 29° Northeast  Level Estimated
12:01AM 14.3840 -23.9960 29° Northeast  Level Estimated
12:02AM 14.4926 -23.9399 29° Northeast  Level Estimated
12:03AM 14.6012 -23.8837 29° Northeast  Level Estimated
12:04AM 14.7098 -23.8274 29° Northeast  Level Estimated
12:05AM 14.8183 -23.7710 29° Northeast  Level Estimated
12:06AM 14.9269 -23.7146 29° Northeast  Level Estimated
12:07AM 15.0354 -23.6582 29° Northeast  Level Estimated
12:08AM 15.1439 -23.6017 29° Northeast  Level Estimated
12:09AM 15.2524 -23.5451 29° Northeast  Level Estimated
12:10AM 15.3609 -23.4885 29° Northeast  Level Estimated
12:11AM 15.4694 -23.4318 29° Northeast  Level Estimated
12:12AM 15.5779 -23.3751 29° Northeast  Level Estimated
12:13AM 15.6863 -23.3183 29° Northeast  Level Estimated
12:14AM 15.7948 -23.2614 29° Northeast  Level Estimated
12:15AM 15.9032 -23.2045 29° Northeast  Level Estimated
12:16AM 16.0116 -23.1475 29° Northeast  Level Estimated
12:17AM 16.1200 -23.0905 29° Northeast  Level Estimated
12:18AM 16.2284 -23.0334 29° Northeast  Level Estimated
12:19AM 16.3367 -22.9762 29° Northeast  Level Estimated
12:20AM 16.4451 -22.9190 29° Northeast  Level Estimated
12:21AM 16.5534 -22.8617 29° Northeast  Level Estimated
12:22AM 16.6617 -22.8043 29° Northeast  Level Estimated
12:23AM 16.7700 -22.7469 29° Northeast  Level Estimated
12:24AM 16.8783 -22.6894 29° Northeast  Level Estimated
12:25AM 16.9866 -22.6318 30° Northeast  Level Estimated
12:26AM 17.0948 -22.5742 30° Northeast  Level Estimated
12:27AM 17.2031 -22.5165 30° Northeast  Level Estimated
12:28AM 17.3113 -22.4587 30° Northeast  Level Estimated
12:29AM 17.4195 -22.4009 30° Northeast  Level Estimated
12:30AM 17.5277 -22.3430 30° Northeast  Level Estimated
12:31AM 17.6358 -22.2850 30° Northeast  Level Estimated
12:32AM 17.7440 -22.2270 30° Northeast  Level Estimated
12:33AM 17.8521 -22.1689 30° Northeast  Level Estimated
12:34AM 17.9602 -22.1107 30° Northeast  Level Estimated
12:35AM 18.0683 -22.0525 30° Northeast  Level Estimated
12:36AM 18.1764 -21.9941 30° Northeast  Level Estimated
12:37AM 18.2845 -21.9357 30° Northeast  Level Estimated
12:38AM 18.3925 -21.8773 30° Northeast  Level Estimated
12:39AM 18.5006 -21.8187 30° Northeast  Level Estimated
12:40AM 18.6086 -21.7601 30° Northeast  Level Estimated
12:41AM 18.7166 -21.7014 30° Northeast  Level Estimated
12:42AM 18.8245 -21.6427 30° Northeast  Level Estimated
12:43AM 18.9325 -21.5838 30° Northeast  Level Estimated
12:44AM 19.0404 -21.5249 31° Northeast  Level Estimated
12:45AM 19.1483 -21.4659 31° Northeast  Level Estimated
12:46AM 19.2563 -21.4069 31° Northeast  Level Estimated
12:47AM 19.3641 -21.3477 31° Northeast  Level Estimated
12:48AM 19.4720 -21.2885 31° Northeast  Level Estimated
12:49AM 19.5798 -21.2292 31° Northeast  Level Estimated
12:50AM 19.6877 -21.1698 31° Northeast  Level Estimated
12:51AM 19.7955 -21.1104 31° Northeast  Level Estimated
12:52AM 19.9032 -21.0508 31° Northeast  Level Estimated
12:53AM 20.0110 -20.9912 31° Northeast  Level Estimated
12:54AM 20.1187 -20.9315 31° Northeast  Level Estimated
12:55AM 20.2264 -20.8717 31° Northeast  Level Estimated
12:56AM 20.3342 -20.8118 31° Northeast  Level Estimated
12:57AM 20.4418 -20.7519 32° Northeast  Level Estimated
12:58AM 20.5495 -20.6918 32° Northeast  Level Estimated
12:59AM 20.6571 -20.6317 32° Northeast  Level Estimated
01:00AM 20.7647 -20.5715 32° Northeast  Level Estimated
01:01AM 20.8724 -20.5112 32° Northeast  Level Estimated
01:02AM 20.9799 -20.4508 32° Northeast  Level Estimated
01:03AM 21.0875 -20.3904 32° Northeast  Level Estimated
01:04AM 21.1950 -20.3298 32° Northeast  Level Estimated
01:05AM 21.3025 -20.2692 32° Northeast  Level Estimated
01:06AM 21.4100 -20.2084 32° Northeast  Level Estimated
01:07AM 21.5175 -20.1476 33° Northeast  Level Estimated
01:08AM 21.6250 -20.0867 33° Northeast  Level Estimated
01:09AM 21.7324 -20.0257 33° Northeast  Level Estimated
01:10AM 21.8398 -19.9646 33° Northeast  Level Estimated
01:11AM 21.9472 -19.9034 33° Northeast  Level Estimated
01:12AM 22.0545 -19.8422 33° Northeast  Level Estimated
01:13AM 22.1619 -19.7808 33° Northeast  Level Estimated
01:14AM 22.2692 -19.7193 33° Northeast  Level Estimated
01:15AM 22.3765 -19.6578 34° Northeast  Level Estimated
01:16AM 22.4837 -19.5961 34° Northeast  Level Estimated
01:17AM 22.5910 -19.5344 34° Northeast  Level Estimated
01:18AM 22.6982 -19.4725 34° Northeast  Level Estimated
01:19AM 22.8054 -19.4106 34° Northeast  Level Estimated
01:20AM 22.9126 -19.3486 35° Northeast  Level Estimated
01:21AM 23.0197 -19.2864 35° Northeast  Level Estimated
01:22AM 23.1268 -19.2242 35° Northeast  Level Estimated
01:23AM 23.2339 -19.1618 35° Northeast  Level Estimated
01:24AM 23.3410 -19.0994 35° Northeast  Level Estimated
01:25AM 23.4481 -19.0368 36° Northeast  Level Estimated
01:26AM 23.5551 -18.9742 36° Northeast  Level Estimated
01:27AM 23.6621 -18.9115 36° Northeast  Level Estimated
01:28AM 23.7691 -18.8486 37° Northeast  Level Estimated
01:29AM 23.8760 -18.7857 37° Northeast  Level Estimated
01:30AM 23.9829 -18.7226 37° Northeast  Level Estimated
01:31AM 24.0898 -18.6595 38° Northeast  Level Estimated
01:32AM 24.1967 -18.5962 38° Northeast  Level Estimated
01:33AM 24.3035 -18.5328 38° Northeast  Level Estimated
01:34AM 24.4104 -18.4694 39° Northeast  Level Estimated
01:35AM 24.5172 -18.4058 39° Northeast  Level Estimated
01:36AM 24.6239 -18.3421 40° Northeast  Level Estimated
01:37AM 24.7307 -18.2783 40° Northeast  Level Estimated
01:38AM 24.8374 -18.2144 41° Northeast  Level Estimated
01:39AM 24.9440 -18.1504 42° Northeast  Level Estimated
01:40AM 25.0507 -18.0862 43° Northeast  Level Estimated
01:41AM 25.1573 -18.0220 44° Northeast  Level Estimated
01:42AM 25.2639 -17.9576 45° Northeast  Level Estimated
01:43AM 25.3705 -17.8932 46° Northeast  Level Estimated
01:44AM 25.4771 -17.8286 47° Northeast  Level Estimated
01:45AM 25.5836 -17.7639 49° Northeast  Level Estimated
01:46AM 26.5305 -16.5509 33° Northeast 479 551 38,000  Level FlightAware
01:46AM 26.6009 -16.5006 33° Northeast 481 554 38,000  Level FlightAware
01:47AM 26.6553 -16.4617 33° Northeast 482 555 38,000  Level FlightAware
01:47AM 26.7330 -16.4061 33° Northeast 484 557 38,000  Level FlightAware
01:48AM 26.7894 -16.3656 33° Northeast 478 550 38,000  Level FlightAware
01:49AM 26.8651 -16.3113 33° Northeast 484 557 38,000  Level FlightAware
01:49AM 26.9311 -16.2639 33° Northeast 480 552 38,000  Level FlightAware
01:50AM 26.9941 -16.2185 33° Northeast 479 551 38,000  Level FlightAware
01:50AM 27.0517 -16.1770 33° Northeast 478 550 38,000  Level FlightAware
01:51AM 27.1261 -16.1232 33° Northeast 477 549 38,000  Level FlightAware
01:52AM 27.1979 -16.0713 33° Northeast 476 548 38,000  Level FlightAware
01:52AM 27.2512 -16.0327 33° Northeast 476 548 38,000  Level FlightAware
01:53AM 27.3254 -15.9789 33° Northeast 475 547 38,000  Level FlightAware
01:53AM 27.3802 -15.9392 33° Northeast 476 548 38,000  Level FlightAware
01:54AM 27.4513 -15.8874 33° Northeast 477 549 38,000  Level FlightAware
01:54AM 27.5106 -15.8442 33° Northeast 477 549 38,000  Level FlightAware
01:55AM 27.5850 -15.7899 33° Northeast 479 551 38,000  Level FlightAware
01:56AM 27.6407 -15.7493 33° Northeast 478 550 38,000  Level FlightAware
01:56AM 27.7099 -15.6987 33° Northeast 476 548 38,000  Level FlightAware
01:57AM 27.7688 -15.6556 33° Northeast 478 550 38,000  Level FlightAware
01:57AM 27.8407 -15.6029 33° Northeast 477 549 38,000  Level FlightAware
01:58AM 27.9047 -15.5559 33° Northeast 479 551 38,000  Level FlightAware
01:58AM 27.9591 -15.5158 33° Northeast 479 551 38,000  Level FlightAware
01:59AM 28.0339 -15.4607 33° Northeast 479 551 38,000  Level FlightAware
02:00AM 28.0902 -15.4193 33° Northeast 480 552 38,000  Level FlightAware
02:00AM 28.1642 -15.3643 33° Northeast 480 552 38,000  Level FlightAware
02:01AM 28.2469 -15.3027 33° Northeast 481 554 38,000  Level FlightAware
02:01AM 28.3008 -15.2626 33° Northeast 481 554 38,000  Level FlightAware
02:02AM 28.3697 -15.2112 33° Northeast 482 555 38,000  Level FlightAware
02:03AM 28.4256 -15.1694 33° Northeast 482 555 38,000  Level FlightAware
02:03AM 28.5000 -15.1137 33° Northeast 482 555 38,000  Level FlightAware
02:04AM 28.5755 -15.0571 33° Northeast 484 557 38,000  Level FlightAware
02:04AM 28.6322 -15.0145 33° Northeast 483 556 38,000  Level FlightAware
02:05AM 28.6932 -14.9688 33° Northeast 483 556 38,000  Level FlightAware
02:05AM 28.7505 -14.9256 33° Northeast 481 554 38,000  Level FlightAware
02:06AM 28.8332 -14.8633 34° Northeast 480 552 38,000  Level FlightAware
02:07AM 28.9002 -14.8126 33° Northeast 480 552 38,000  Level FlightAware
02:07AM 28.9552 -14.7710 34° Northeast 481 554 38,000  Level FlightAware
02:08AM 29.0191 -14.7226 34° Northeast 482 555 38,000  Level FlightAware
02:08AM 29.0867 -14.6713 34° Northeast 483 556 38,000  Level FlightAware
02:09AM 29.1501 -14.6232 34° Northeast 482 555 38,000  Level FlightAware
02:10AM 29.2152 -14.5737 34° Northeast 482 555 38,000  Level FlightAware
02:10AM 29.2813 -14.5233 34° Northeast 481 554 38,000  Level FlightAware
02:11AM 29.3337 -14.4834 34° Northeast 481 554 38,000  Level FlightAware
02:11AM 29.4109 -14.4244 34° Northeast 481 554 38,000  Level FlightAware
02:12AM 29.4858 -14.3671 34° Northeast 481 554 38,000  Level FlightAware
02:13AM 29.5416 -14.3242 34° Northeast 481 554 38,000  Level FlightAware
02:13AM 29.6055 -14.2753 34° Northeast 482 555 38,000  Level FlightAware
02:14AM 29.6713 -14.2247 34° Northeast 483 556 38,000  Level FlightAware
02:14AM 29.7349 -14.1757 34° Northeast 483 556 38,000  Level FlightAware
02:15AM 29.7914 -14.1321 34° Northeast 483 556 38,000  Level FlightAware
02:15AM 29.8627 -14.0770 34° Northeast 483 556 38,000  Level FlightAware
02:16AM 29.9316 -14.0237 34° Northeast 484 557 38,000  Level FlightAware
02:17AM 29.9954 -13.9743 34° Northeast 485 558 38,000  Level FlightAware
02:17AM 30.0702 -13.9162 34° Northeast 486 559 38,000  Level FlightAware
02:18AM 30.1242 -13.8742 34° Northeast 486 559 38,000  Level FlightAware
02:18AM 30.1910 -13.8222 34° Northeast 485 558 38,000  Level FlightAware
02:19AM 30.2567 -13.7709 34° Northeast 484 557 38,000  Level FlightAware
02:20AM 30.3218 -13.7200 34° Northeast 483 556 38,000  Level FlightAware
02:20AM 30.3853 -13.6705 34° Northeast 483 556 38,000  Level FlightAware
02:21AM 30.4693 -13.6049 34° Northeast 484 557 38,000  Level FlightAware
02:21AM 30.5234 -13.5624 34° Northeast 484 557 38,000  Level FlightAware
02:22AM 30.5899 -13.5103 34° Northeast 484 557 38,000  Level FlightAware
02:23AM 30.6650 -13.4510 34° Northeast 481 554 38,000  Level FlightAware
02:23AM 30.7203 -13.4073 34° Northeast 481 554 38,000  Level FlightAware
02:24AM 30.7946 -13.3487 34° Northeast 482 555 38,000  Level FlightAware
02:24AM 30.8489 -13.3058 34° Northeast 483 556 38,000  Level FlightAware
02:25AM 30.9229 -13.2471 34° Northeast 483 556 38,000  Level FlightAware
02:25AM 30.9792 -13.2025 34° Northeast 482 555 38,000  Level FlightAware
02:26AM 31.0532 -13.1435 34° Northeast 482 555 38,000  Level FlightAware
02:27AM 31.1086 -13.0995 34° Northeast 483 556 38,000  Level FlightAware
02:27AM 31.1805 -13.0420 34° Northeast 483 556 38,000  Level FlightAware
02:28AM 31.2366 -12.9972 34° Northeast 482 555 38,000  Level FlightAware
02:28AM 31.3101 -12.9383 34° Northeast 481 554 38,000  Level FlightAware
02:29AM 31.3733 -12.8877 34° Northeast 479 551 38,000  Level FlightAware
02:30AM 31.4373 -12.8362 34° Northeast 475 547 38,000  Level FlightAware
02:30AM 31.4914 -12.7926 34° Northeast 472 543 38,000  Level FlightAware
02:31AM 31.5532 -12.7429 35° Northeast 470 541 38,000  Level FlightAware
02:31AM 31.6248 -12.6850 35° Northeast 468 539 38,000  Level FlightAware
02:32AM 31.6788 -12.6413 35° Northeast 467 537 38,000  Level FlightAware
02:32AM 31.7384 -12.5931 35° Northeast 464 534 38,000  Level FlightAware
02:33AM 31.8136 -12.5320 35° Northeast 464 534 38,000  Level FlightAware
02:34AM 31.8660 -12.4895 35° Northeast 462 532 38,000  Level FlightAware
02:34AM 31.9353 -12.4330 35° Northeast 459 528 38,000  Level FlightAware
02:35AM 31.9883 -12.3898 35° Northeast 457 526 38,000  Level FlightAware
02:35AM 32.0575 -12.3332 35° Northeast 454 522 38,000  Level FlightAware
02:36AM 32.1101 -12.2902 35° Northeast 453 521 38,000  Level FlightAware
02:37AM 32.1770 -12.2354 35° Northeast 454 522 38,000  Level FlightAware
02:37AM 32.2290 -12.1926 35° Northeast 455 524 38,000  Level FlightAware
02:38AM 32.2882 -12.1440 35° Northeast 455 524 38,000  Level FlightAware
02:38AM 32.3511 -12.0923 35° Northeast 457 526 38,000  Level FlightAware
02:39AM 32.4128 -12.0413 35° Northeast 459 528 38,000  Level FlightAware
02:40AM 32.4792 -11.9864 35° Northeast 461 531 38,000  Level FlightAware
02:40AM 32.5322 -11.9426 35° Northeast 463 533 38,000  Level FlightAware
02:41AM 32.6025 -11.8843 35° Northeast 463 533 38,000  Level FlightAware
02:41AM 32.6564 -11.8395 35° Northeast 464 534 38,000  Level FlightAware
02:42AM 32.7194 -11.7871 35° Northeast 464 534 38,000  Level FlightAware
02:42AM 32.7781 -11.7382 35° Northeast 464 534 38,000  Level FlightAware
02:43AM 32.8413 -11.6854 35° Northeast 464 534 38,000  Level FlightAware
02:44AM 32.9126 -11.6258 35° Northeast 464 534 38,000  Level FlightAware
02:44AM 32.9656 -11.5814 35° Northeast 462 532 38,000  Level FlightAware
02:45AM 33.0326 -11.5252 35° Northeast 462 532 38,000  Level FlightAware
02:45AM 33.0839 -11.4821 35° Northeast 461 531 38,000  Level FlightAware
02:46AM 33.1547 -11.4224 35° Northeast 461 531 38,000  Level FlightAware
02:46AM 33.2072 -11.3782 35° Northeast 461 531 38,000  Level FlightAware
03:04AM 35.0372 -9.7911 36° Northeast 461 531 38,000  Level FlightAware
03:04AM 35.0932 -9.7411 36° Northeast 460 529 38,000  Level FlightAware
03:05AM 35.1626 -9.6791 36° Northeast 461 531 38,000  Level FlightAware
03:05AM 35.2134 -9.6335 36° Northeast 461 531 38,000  Level FlightAware
03:06AM 35.3220 -9.5360 36° Northeast 460 529 38,000  Level FlightAware
03:07AM 35.3824 -9.4817 36° Northeast 461 531 38,000  Level FlightAware
03:08AM 35.4433 -9.4267 36° Northeast 459 528 38,000  Level FlightAware
03:08AM 35.5042 -9.3716 36° Northeast 459 528 38,000  Level FlightAware
03:09AM 35.5519 -9.3285 36° Northeast 465 535 38,000  Level FlightAware
03:09AM 35.6229 -9.2640 36° Northeast 464 534 38,000  Level FlightAware
03:10AM 35.6856 -9.2071 36° Northeast 464 534 38,000  Level FlightAware
03:11AM 35.7457 -9.1523 38° Northeast 466 536 38,000  Level FlightAware
03:11AM 35.8218 -9.0797 46° Northeast 465 535 38,000  Level FlightAware
03:12AM 35.8671 -9.0211 48° Northeast 471 542 38,000  Level FlightAware
03:12AM 35.9262 -8.9405 48° Northeast 469 540 38,000  Level FlightAware
03:13AM 35.9706 -8.8798 48° Northeast 467 537 38,000  Level FlightAware
03:14AM 36.0213 -8.8101 48° Northeast 467 537 38,000  Level FlightAware
03:14AM 36.0719 -8.7404 48° Northeast 467 537 38,000  Level FlightAware
03:15AM 36.1298 -8.6605 48° Northeast 468 539 38,000  Level FlightAware
03:15AM 36.1742 -8.5992 48° Northeast 469 540 38,000  Level FlightAware
03:16AM 36.2324 -8.5184 48° Northeast 471 542 38,000  Level FlightAware
03:16AM 36.2766 -8.4572 48° Northeast 472 543 38,000  Level FlightAware
03:17AM 36.3350 -8.3759 48° Northeast 472 543 38,000  Level FlightAware
03:18AM 36.3791 -8.3144 48° Northeast 472 543 38,000  Level FlightAware
03:18AM 36.4379 -8.2320 48° Northeast 472 543 38,000  Level FlightAware
03:19AM 36.4815 -8.1712 48° Northeast 471 542 38,000  Level FlightAware
03:19AM 36.5397 -8.0895 48° Northeast 471 542 38,000  Level FlightAware
03:20AM 36.5819 -8.0302 49° Northeast 470 541 38,000  Level FlightAware
03:21AM 36.6263 -7.9676 49° Northeast 470 541 38,000  Level FlightAware
03:21AM 36.6860 -7.8833 49° Northeast 471 542 38,000  Level FlightAware
03:22AM 36.7370 -7.8110 49° Northeast 473 544 38,000  Level FlightAware
03:22AM 36.7884 -7.7382 49° Northeast 474 545 38,000  Level FlightAware
03:23AM 36.8384 -7.6673 49° Northeast 476 548 38,000  Level FlightAware
03:23AM 36.8909 -7.5923 49° Northeast 477 549 38,000  Level FlightAware
03:24AM 36.9423 -7.5189 49° Northeast 477 549 38,000  Level FlightAware
03:25AM 37.0085 -7.4240 49° Northeast 477 549 38,000  Level FlightAware
03:25AM 37.0518 -7.3617 50° Northeast 477 549 38,000  Level FlightAware
03:26AM 37.1094 -7.2759 50° Northeast 483 556 38,000  Level FlightAware
03:27AM 37.1602 -7.2000 50° Northeast 477 549 38,000  Level FlightAware
03:27AM 37.2096 -7.1262 49° Northeast 481 554 38,000  Level FlightAware
03:28AM 37.2608 -7.0522 41° Northeast 471 542 38,000  Level FlightAware
03:28AM 37.3084 -6.9993 40° Northeast 466 536 38,000  Level FlightAware
03:29AM 37.3675 -6.9364 40° Northeast 468 539 38,000  Level FlightAware
03:29AM 37.4347 -6.8650 40° Northeast 469 540 38,000  Level FlightAware
03:30AM 37.5024 -6.7928 40° Northeast 472 543 38,000  Level FlightAware
03:31AM 37.5605 -6.7306 40° Northeast 468 539 38,000  Level FlightAware
03:31AM 37.6193 -6.6676 40° Northeast 467 537 38,000  Level FlightAware
03:32AM 37.6693 -6.6139 40° Northeast 466 536 38,000  Level FlightAware
03:32AM 37.7356 -6.5427 40° Northeast 467 537 38,000  Level FlightAware
03:33AM 37.8015 -6.4717 41° Northeast 472 543 38,000  Level FlightAware
03:34AM 37.8510 -6.4180 40° Northeast 467 537 38,000  Level FlightAware
03:34AM 37.9099 -6.3544 41° Northeast 467 537 38,000  Level FlightAware
03:35AM 37.9681 -6.2911 41° Northeast 470 541 38,000  Level FlightAware
03:35AM 38.0266 -6.2276 41° Northeast 473 544 38,000  Level FlightAware
03:36AM 38.0785 -6.1710 41° Northeast 474 545 38,000  Level FlightAware
03:36AM 38.1368 -6.1074 41° Northeast 474 545 38,000 120 Level FlightAware
03:37AM 38.2046 -6.0333 41° Northeast 476 548 38,200 360 Climbing FlightAware
03:38AM 38.2558 -5.9773 41° Northeast 486 559 38,500 480 Climbing FlightAware
03:38AM 38.3230 -5.9036 41° Northeast 488 562 38,800 420 Climbing FlightAware
03:39AM 38.3747 -5.8467 41° Northeast 489 563 39,000 480 Climbing FlightAware
03:39AM 38.4435 -5.7708 41° Northeast 491 565 39,400 540 Climbing FlightAware
03:40AM 38.4999 -5.7086 41° Northeast 492 566 39,700 480 Climbing FlightAware
03:41AM 38.5580 -5.6441 41° Northeast 491 565 40,000 240 Climbing FlightAware
03:41AM 38.6095 -5.5870 41° Northeast 489 563 40,000  Level FlightAware
03:42AM 38.6778 -5.5110 41° Northeast 489 563 40,000  Level FlightAware
03:43AM 38.7573 -5.4224 41° Northeast 487 560 40,000  Level FlightAware
03:44AM 38.8815 -5.2833 41° Northeast 480 552 40,000  Level FlightAware
03:45AM 38.9694 -5.1845 36° Northeast 481 554 40,000  Level FlightAware
03:45AM 39.0411 -5.1162 33° Northeast 483 556 40,000  Level FlightAware
03:46AM 39.1197 -5.0512 33° Northeast 477 549 40,000  Level FlightAware
03:47AM 39.1733 -5.0067 33° Northeast 477 549 40,000  Level FlightAware
03:47AM 39.2370 -4.9539 33° Northeast 483 556 40,000  Level FlightAware
03:48AM 39.3054 -4.8969 33° Northeast 483 556 40,000  Level FlightAware
03:48AM 39.3797 -4.8351 33° Northeast 477 549 40,000  Level FlightAware
03:49AM 39.4403 -4.7844 33° Northeast 478 550 40,000  Level FlightAware
03:50AM 39.5238 -4.7144 33° Northeast 479 551 40,000  Level FlightAware
03:50AM 39.5891 -4.6596 33° Northeast 479 551 40,000  Level FlightAware
03:52AM 39.7814 -4.4972 33° Northeast 483 556 40,000  Level FlightAware
03:53AM 39.8702 -4.4219 33° Northeast 479 551 40,000  Level FlightAware
03:53AM 39.9245 -4.3758 30° Northeast 469 540 40,000  Level FlightAware
03:54AM 39.9994 -4.3196 25° Northeast 469 540 40,000  Level FlightAware
03:54AM 40.0539 -4.2862 25° Northeast 465 535 40,000  Level FlightAware
03:55AM 40.1280 -4.2409 25° Northeast 464 534 40,000  Level FlightAware
03:56AM 40.2075 -4.1922 25° Northeast 461 531 40,000  Level FlightAware
03:56AM 40.2864 -4.1440 25° Northeast 464 534 40,000  Level FlightAware
03:57AM 40.3516 -4.1038 25° Northeast 464 534 40,000  Level FlightAware
03:57AM 40.4275 -4.0571 25° Northeast 466 536 40,000  Level FlightAware
03:58AM 40.4955 -4.0151 25° Northeast 468 539 40,000  Level FlightAware
03:59AM 40.5556 -3.9779 25° Northeast 467 537 40,000  Level FlightAware
03:59AM 40.6331 -3.9299 25° Northeast 468 539 40,000  Level FlightAware
04:00AM 40.6914 -3.8936 25° Northeast 476 548 40,000  Level FlightAware
04:00AM 40.7728 -3.8429 25° Northeast 477 549 40,000  Level FlightAware
04:01AM 40.8337 -3.8049 25° Northeast 476 548 40,000  Level FlightAware
04:02AM 40.9136 -3.7549 25° Northeast 479 551 40,000  Level FlightAware
04:02AM 40.9719 -3.7183 25° Northeast 480 552 40,000  Level FlightAware
04:03AM 41.0481 -3.6704 25° Northeast 479 551 40,000  Level FlightAware
04:03AM 41.1123 -3.6299 24° Northeast 479 551 40,000  Level FlightAware
04:04AM 41.1949 -3.5816 22° Northeast 470 541 40,000  Level FlightAware
04:04AM 41.2532 -3.5497 22° Northeast 469 540 40,000  Level FlightAware
04:05AM 41.3296 -3.5078 22° Northeast 469 540 40,000  Level FlightAware
04:06AM 41.3966 -3.4711 22° Northeast 469 540 40,000  Level FlightAware
04:06AM 41.4890 -3.4203 22° Northeast 468 539 40,000  Level FlightAware
04:08AM 41.6540 -3.3292 22° Northeast 476 548 40,000  Level FlightAware
04:09AM 41.7549 -3.2733 23° Northeast 477 549 40,000  Level FlightAware
04:09AM 41.8618 -3.2138 23° Northeast 479 551 40,000  Level FlightAware
04:10AM 41.9315 -3.1749 23° Northeast 480 552 40,000  Level FlightAware
04:11AM 41.9975 -3.1381 23° Northeast 480 552 40,000  Level FlightAware
04:11AM 42.1159 -3.0715 23° Northeast 481 554 40,000  Level FlightAware
04:12AM 42.1748 -3.0383 23° Northeast 482 555 40,000  Level FlightAware
04:13AM 42.2701 -2.9846 23° Northeast 484 557 40,000  Level FlightAware
04:13AM 42.3199 -2.9564 25° Northeast 483 556 40,000  Level FlightAware
04:14AM 42.4203 -2.8932 34° Northeast 484 557 40,000  Level FlightAware
04:15AM 42.5046 -2.8169 41° Northeast 487 560 40,000  Level FlightAware
04:15AM 42.5584 -2.7540 42° Northeast 489 563 40,000  Level FlightAware
04:16AM 42.6321 -2.6652 42° Northeast 493 567 40,000  Level FlightAware
04:17AM 42.7082 -2.5732 42° Northeast 492 566 40,000  Level FlightAware
04:17AM 42.7581 -2.5125 42° Northeast 492 566 40,000  Level FlightAware
04:18AM 42.8359 -2.4176 42° Northeast 495 570 40,000  Level FlightAware
04:18AM 42.8895 -2.3521 42° Northeast 496 571 40,000  Level FlightAware
04:19AM 42.9523 -2.2752 42° Northeast 498 573 40,000  Level FlightAware
04:20AM 43.0432 -2.1634 42° Northeast 501 577 40,000  Level FlightAware
04:20AM 43.0926 -2.1024 42° Northeast 503 579 40,000  Level FlightAware
04:21AM 43.1639 -2.0140 42° Northeast 506 582 40,000  Level FlightAware
04:22AM 43.2509 -1.9059 42° Northeast 507 583 40,000  Level FlightAware
04:23AM 43.3222 -1.8173 36° Northeast 507 583 40,000  Level FlightAware
04:23AM 43.4140 -1.7244 27° Northeast 507 583 40,000  Level FlightAware
04:24AM 43.4974 -1.6667 22° Northeast 506 582 40,000  Level FlightAware
04:25AM 43.6004 -1.6093 22° Northeast 508 585 40,000  Level FlightAware
04:25AM 43.6710 -1.5697 22° Northeast 508 585 40,000  Level FlightAware
04:26AM 43.7695 -1.5145 22° Northeast 508 585 40,000  Level FlightAware
04:27AM 43.8295 -1.4807 22° Northeast 508 585 40,000  Level FlightAware
04:27AM 43.9308 -1.4237 22° Northeast 509 586 40,000  Level FlightAware
04:28AM 44.0096 -1.3791 22° Northeast 509 586 40,000  Level FlightAware
04:29AM 44.1204 -1.3162 22° Northeast 509 586 40,000  Level FlightAware
04:30AM 44.2157 -1.2619 22° Northeast 512 589 40,000  Level FlightAware
04:30AM 44.3200 -1.2023 22° Northeast 511 588 40,000  Level FlightAware
04:31AM 44.4280 -1.1404 22° Northeast 512 589 40,000  Level FlightAware
04:32AM 44.5166 -1.0894 22° Northeast 512 589 40,000  Level FlightAware
04:33AM 44.6719 -1.0004 22° Northeast 515 593 40,000  Level FlightAware
04:34AM 44.7864 -0.9344 22° Northeast 517 595 40,000  Level FlightAware
04:35AM 44.9520 -0.8384 22° Northeast 514 592 40,000  Level FlightAware
04:36AM 45.1189 -0.7411 22° Northeast 518 596 40,000  Level FlightAware
04:38AM 45.2730 -0.6506 22° Northeast 515 593 40,000  Level FlightAware
04:40AM 45.5542 -0.4899 13° North 517 595 40,000 -480 Level FlightAware
04:46AM 46.3824 -0.2154 13° North 509 586 36,600 -660 Descending FlightAware
04:46AM 46.4485 -0.1932 13° North 499 574 36,100 -1,440 Descending FlightAware
04:47AM 46.5413 -0.1621 13° North 498 573 35,000 -1,740 Descending FlightAware
04:47AM 46.6144 -0.1373 13° North 495 570 34,100 -1,800 Descending FlightAware
04:48AM 46.6816 -0.1147 13° North 499 574 33,200 -1,740 Descending FlightAware
04:49AM 46.7805 -0.0812 13° North 499 574 31,900 -1,860 Descending FlightAware
04:49AM 46.8847 -0.0457 13° North 498 573 30,500 -1,860 Descending FlightAware
04:50AM 46.9783 -0.0137 14° North 483 556 29,300 -1,500 Descending FlightAware
04:51AM 47.0650 0.0178 25° Northeast 477 549 28,500 -1,020 Descending FlightAware
04:51AM 47.1145 0.0521 30° Northeast 477 549 28,100 -480 Descending FlightAware
04:52AM 47.1753 0.1038 30° Northeast 481 554 28,000 -120 Descending FlightAware
04:52AM 47.2542 0.1717 31° Northeast 483 556 28,000  Level FlightAware
04:53AM 47.3275 0.2376 31° Northeast 484 557 28,000  Level FlightAware
04:54AM 47.3855 0.2898 31° Northeast 485 558 28,000  Level FlightAware
04:54AM 47.4537 0.3509 31° Northeast 483 556 28,000  Level FlightAware
04:55AM 47.5238 0.4140 31° Northeast 485 558 28,000 -300 Level FlightAware
04:55AM 47.5983 0.4815 31° Northeast 483 556 27,700 -720 Descending FlightAware
04:56AM 47.6579 0.5354 31° Northeast 494 568 27,200 -1,020 Descending FlightAware
04:57AM 47.7412 0.6112 31° Northeast 497 572 26,500 -960 Descending FlightAware
04:57AM 47.7947 0.6600 32° Northeast 500 575 26,100 -900 Descending FlightAware
04:58AM 47.8550 0.7151 32° Northeast 497 572 25,600 -1,080 Descending FlightAware
04:58AM 47.9324 0.7861 32° Northeast 495 570 24,900 -960 Descending FlightAware
04:59AM 47.9915 0.8405 32° Northeast 490 564 24,400 -1,080 Descending FlightAware
04:59AM 48.0686 0.9117 32° Northeast 487 560 23,700 -1,080 Descending FlightAware
05:00AM 48.1433 0.9808 32° Northeast 481 554 23,100 -960 Descending FlightAware
05:01AM 48.1987 1.0323 32° Northeast 477 549 22,600 -1,020 Descending FlightAware
05:01AM 48.2559 1.0857 32° Northeast 473 544 22,100 -960 Descending FlightAware
05:02AM 48.3280 1.1530 32° Northeast 468 539 21,500 -1,020 Descending FlightAware
05:02AM 48.3992 1.2198 32° Northeast 442 509 20,800 -1,140 Descending FlightAware
05:03AM 48.4512 1.2686 36° Northeast 423 487 20,200 -1,680 Descending FlightAware
05:04AM 48.5141 1.3367 224° Southwest 424 488 18,900 -1,380 Descending FlightAware
05:04AM 48.5002 1.3163 51° Northeast 422 486 19,200 -1,800 Climbing FlightAware
05:04AM 48.5259 1.3639 63° Northeast 422 486 18,600 -2,760 Descending FlightAware
05:04AM 48.5495 1.4332 59° Northeast 421 484 17,600 -1,920 Descending FlightAware
05:05AM 48.5815 1.5141 44° Northeast 414 476 16,700 -1,800 Descending FlightAware
05:05AM 48.6233 1.5757 44° Northeast 407 468 15,800 -1,500 Descending FlightAware
05:06AM 48.6757 1.6525 44° Northeast 398 458 15,000 -600 Descending FlightAware
05:07AM 48.7288 1.7300 44° Northeast 400 460 15,000  Level FlightAware
05:07AM 48.7697 1.7897 44° Northeast 401 461 15,000  Level FlightAware
05:08AM 48.8226 1.8675 44° Northeast 400 460 15,000 -540 Level FlightAware
05:08AM 48.8580 1.9193 54° Northeast 399 459 14,400 -1,560 Descending FlightAware
05:09AM 48.8862 1.9775 78° East 394 453 13,700 -1,800 Descending FlightAware
05:09AM 48.8910 2.0119 85° East 384 442 13,400 -960 Descending FlightAware
05:09AM 48.8952 2.0873 85° East 367 422 13,000 -420 Descending FlightAware
05:10AM 48.9003 2.1741 85° East 340 391 13,000  Level FlightAware
05:11AM 48.9055 2.2652 85° East 340 391 13,000  Level FlightAware
05:11AM 48.9102 2.3505 85° East 345 397 13,000  Level FlightAware
05:12AM 48.9142 2.4230 87° East 341 392 13,000 -540 Level FlightAware
05:12AM 48.9166 2.4923 89° East 338 389 12,500 -720 Descending FlightAware
05:13AM 48.9177 2.5835 89° East 313 360 12,200 -1,020 Descending FlightAware
05:13AM 48.9187 2.6693 89° East 292 336 11,200 -1,740 Descending FlightAware
05:14AM 48.9193 2.7282 89° East 286 329 10,200 -1,800 Descending FlightAware
05:14AM 48.9197 2.7722 89° East 283 326 9,700 -1,200 Descending FlightAware
05:15AM 48.9202 2.8212 89° East 280 322 9,300 -1,080 Descending FlightAware
05:15AM 48.9204 2.8420 89° East 280 322 9,100 -1,020 Descending FlightAware
05:15AM 48.9208 2.8777 89° East 278 320 8,800 -960 Descending FlightAware
05:16AM 48.9212 2.9281 89° East 272 313 8,400 -960 Descending FlightAware
05:16AM 48.9216 2.9639 89° East 270 311 8,100 -900 Descending FlightAware
05:16AM 48.9219 3.0006 89° East 269 310 7,800 -900 Descending FlightAware
05:17AM 48.9223 3.0400 79° East 270 311 7,500 -1,020 Descending FlightAware
05:17AM 48.9247 3.0583 62° Northeast 273 314 7,300 -900 Descending FlightAware
05:17AM 48.9295 3.0718 50° Northeast 275 316 7,200 -840 Descending FlightAware
05:17AM 48.9341 3.0801 38° Northeast 273 314 7,100 -1,200 Descending FlightAware
05:17AM 48.9405 3.0877 28° Northeast 269 310 7,000 -1,200 Descending FlightAware
05:17AM 48.9447 3.0911 15° North 259 298 6,900 -840 Descending FlightAware
05:17AM 48.9589 3.0967 North 255 293 6,800 -1,200 Descending FlightAware
05:18AM 48.9686 3.0981 North 246 283 6,500 -1,920 Descending FlightAware
05:18AM 48.9986 3.1002 351° North 254 292 5,700 -1,800 Descending FlightAware
05:18AM 49.0060 3.0985 337° Northwest 251 289 5,600 -840 Descending FlightAware
05:18AM 49.0142 3.0931 322° Northwest 242 278 5,500 -840 Descending FlightAware
05:18AM 49.0190 3.0873 311° West 236 272 5,400 -1,200 Descending FlightAware
05:18AM 49.0235 3.0795 305° West 231 266 5,300 -900 Descending FlightAware
05:19AM 49.0325 3.0597 304° West 231 266 5,100 -540 Descending FlightAware
05:19AM 49.0425 3.0368 294° West 228 262 5,000 -420 Descending FlightAware
05:19AM 49.0484 3.0169 274° West 225 259 4,900 -240 Descending FlightAware
05:19AM 49.0495 2.9954 268° West 224 258 4,900  Level FlightAware
05:20AM 49.0487 2.9651 265° West 213 245 4,900  Level FlightAware
05:20AM 49.0474 2.9440 263° West 199 229 4,900  Level FlightAware
05:20AM 49.0459 2.9241 263° West 184 212 4,900 -240 Level FlightAware
05:20AM 49.0443 2.9055 266° West 176 203 4,800 -780 Descending FlightAware
05:21AM 49.0430 2.8741 265° West 173 199 4,400 -1,080 Descending FlightAware
05:21AM 49.0416 2.8497 266° West 174 200 4,000 -1,200 Descending FlightAware
05:22AM 49.0405 2.8245 266° West 176 203 3,600 -1,200 Descending FlightAware
05:22AM 49.0392 2.7984 265° West 180 207 3,200 -1,080 Descending FlightAware
05:22AM 49.0382 2.7793 265° West 177 204 3,000 -720 Descending FlightAware
05:22AM 49.0370 2.7577 266° West 174 200 2,800 -900 Descending FlightAware
05:23AM 49.0358 2.7339 265° West 175 201 2,400 -960 Descending FlightAware
05:23AM 49.0341 2.7018 265° West 172 198 2,100 -960 Descending FlightAware
05:24AM 49.0328 2.6774 266° West 166 191 1,700 -900 Descending FlightAware
05:24AM 49.0317 2.6545 265° West 148 170 1,500 -780 Descending FlightAware
05:24AM 49.0306 2.6352 265° West 142 163 1,200 -900 Descending FlightAware
05:24AM 49.0297 2.6193 266° West 134 154 1,000 -720 Descending FlightAware
05:25AM 49.0288 2.6013 265° West 130 150 800 -780 Descending FlightAware
05:25AM 49.0277 2.5832 266° West 132 152 500 -840 Descending FlightAware
05:26AM 49.0265 2.5593 266° West 131 151 200 -720 Descending FlightAware